KOGD/OGD METAR and TAF weather

Enter ICAO airport designator
Station Type Date Time Source
KOGD METAR 2019/08/26 07:53 UTC NOAA

KOGD 260753Z AUTO 32007KT 10SM CLR 21/00 A3007 RMK AO2 SLP118 T02110000


Station Type Date Time Source
KOGD Decoded METAR 2019/08/26 07:53 UTC NOAA

Station name not available
Aug 26, 2019 - 03:53 AM EDT / 2019.08.26 0753 UTC
Wind: from the NW (320 degrees) at 8 MPH (7 KT):0
Visibility: 10 mile(s):0
Sky conditions: clear
Temperature: 70.0 F (21.1 C)
Dew Point: 32.0 F (0.0 C)
Relative Humidity: 24%
Pressure (altimeter): 30.07 in. Hg (1018 hPa)
ob: KOGD 260753Z AUTO 32007KT 10SM CLR 21/00 A3007 RMK AO2 SLP118 T02110000
cycle: 8

Station Type Date Time Source
KOGD TAF 2019/08/26 06:48 UTC NOAA

TAF
AMD KOGD 260544Z 2606/2706 33011G18KT P6SM SKC
FM260800 34007KT P6SM SKC
FM261600 29007KT P6SM SKC

Example: see airport list